createdAt,value
2018-05-18T00:05:02.672Z,4.27
2018-05-18T00:07:33.041Z,4.00
2018-05-18T00:10:03.410Z,4.50
2018-05-18T00:12:33.804Z,4.37
2018-05-18T00:15:04.166Z,4.50
2018-05-18T00:17:34.529Z,3.60
2018-05-18T00:20:05.698Z,4.37
2018-05-18T00:22:36.064Z,4.40
2018-05-18T00:25:06.440Z,4.50
2018-05-18T00:27:36.828Z,4.03
2018-05-18T00:30:07.205Z,4.23
2018-05-18T00:32:37.568Z,4.57
2018-05-18T00:35:07.966Z,4.10
2018-05-18T00:37:44.467Z,3.70
2018-05-18T00:40:14.853Z,4.10
2018-05-18T00:42:45.215Z,4.20
2018-05-18T00:45:15.580Z,3.97
2018-05-18T00:47:46.736Z,3.83
2018-05-18T00:50:17.106Z,4.57
2018-05-18T00:52:47.476Z,4.20
2018-05-18T00:55:42.155Z,4.60
2018-05-18T00:58:13.285Z,4.07
2018-05-18T01:00:43.661Z,3.73
2018-05-18T01:03:14.851Z,4.60
2018-05-18T01:05:45.227Z,4.40
2018-05-18T01:08:15.846Z,4.40
2018-05-18T01:10:46.240Z,4.57
2018-05-18T01:13:16.613Z,4.73
2018-05-18T01:15:47.075Z,4.30
2018-05-18T01:18:17.371Z,4.43
2018-05-18T01:20:47.689Z,4.80
2018-05-18T01:23:18.074Z,4.07
2018-05-18T01:25:48.470Z,4.07
2018-05-18T01:28:25.987Z,4.43
2018-05-18T01:30:56.395Z,4.30
2018-05-18T01:33:47.914Z,4.63
2018-05-18T01:36:18.387Z,4.23
2018-05-18T01:38:49.414Z,4.17
2018-05-18T01:41:19.787Z,4.20
2018-05-18T01:43:50.183Z,5.40
2018-05-18T01:46:21.542Z,4.27
2018-05-18T01:48:52.892Z,4.60
2018-05-18T01:51:24.049Z,4.27
2018-05-18T01:53:54.419Z,4.07
2018-05-18T01:56:24.797Z,4.20
2018-05-18T01:58:56.622Z,4.37
2018-05-18T02:01:27.001Z,4.33
2018-05-18T02:03:57.315Z,4.07
2018-05-18T02:06:27.715Z,4.67
2018-05-18T02:08:58.852Z,3.83
2018-05-18T02:11:29.985Z,4.20
2018-05-18T02:14:00.383Z,4.27
2018-05-18T02:16:32.810Z,4.87
2018-05-18T02:19:03.178Z,4.93
2018-05-18T02:21:39.714Z,4.60
2018-05-18T02:24:10.028Z,4.47
2018-05-18T02:26:41.160Z,4.23
2018-05-18T02:29:12.325Z,4.70
2018-05-18T02:31:43.458Z,4.87
2018-05-18T02:34:14.591Z,4.97
2018-05-18T02:36:44.987Z,4.50
2018-05-18T02:39:15.349Z,3.90
2018-05-18T02:41:46.481Z,4.20
2018-05-18T02:44:16.880Z,5.17
2018-05-18T02:47:08.590Z,5.00
2018-05-18T02:49:38.969Z,4.23
2018-05-18T02:52:09.334Z,5.43
2018-05-18T02:54:40.721Z,4.70
2018-05-18T02:57:11.109Z,4.43
2018-05-18T02:59:41.470Z,4.80
2018-05-18T03:02:12.048Z,4.60
2018-05-18T03:04:43.206Z,4.53
2018-05-18T03:07:13.583Z,4.73
2018-05-18T03:09:43.956Z,5.00
2018-05-18T03:12:14.373Z,5.63
2018-05-18T03:14:44.737Z,5.57
2018-05-18T03:17:19.203Z,5.63
2018-05-18T03:19:51.389Z,5.17
2018-05-18T03:22:22.534Z,5.40
2018-05-18T03:24:52.902Z,4.93
2018-05-18T03:27:45.498Z,5.23
2018-05-18T03:30:15.832Z,4.70
2018-05-18T03:32:46.205Z,4.60
2018-05-18T03:35:17.625Z,5.13
2018-05-18T03:37:47.990Z,4.87
2018-05-18T03:40:18.359Z,5.10
2018-05-18T03:42:49.515Z,5.27
2018-05-18T03:45:19.877Z,4.43
2018-05-18T03:47:50.241Z,4.90
2018-05-18T03:50:21.605Z,5.10
2018-05-18T03:52:51.973Z,4.77
2018-05-18T03:55:22.346Z,4.70
2018-05-18T03:57:53.499Z,4.80
2018-05-18T04:00:23.882Z,4.40
2018-05-18T04:03:48.847Z,5.17
2018-05-18T04:07:14.457Z,4.53
2018-05-18T04:09:45.615Z,5.00
2018-05-18T04:12:15.985Z,5.17
2018-05-18T04:14:46.354Z,5.60
2018-05-18T04:17:16.698Z,4.87
2018-05-18T04:19:47.083Z,5.30
2018-05-18T04:22:17.459Z,5.23
2018-05-18T04:27:37.144Z,5.10
2018-05-18T04:30:07.554Z,4.97
2018-05-18T04:32:37.888Z,4.83
2018-05-18T04:35:08.250Z,5.67
2018-05-18T04:37:38.648Z,4.83
2018-05-18T04:40:09.027Z,5.20
2018-05-18T04:42:39.385Z,4.77
2018-05-18T04:45:10.549Z,5.20
2018-05-18T04:47:40.910Z,5.63
2018-05-18T04:50:11.285Z,5.50
2018-05-18T04:52:41.914Z,5.63
2018-05-18T04:55:13.261Z,5.40
2018-05-18T04:57:44.394Z,5.87
2018-05-18T05:00:14.734Z,5.50
2018-05-18T05:02:45.048Z,5.77
2018-05-18T05:05:15.421Z,5.67
2018-05-18T05:07:51.888Z,5.67
2018-05-18T05:10:29.404Z,5.57
2018-05-18T05:12:59.798Z,5.33
2018-05-18T05:15:30.107Z,5.57
2018-05-18T05:18:00.576Z,5.70
2018-05-18T05:20:31.155Z,5.23
2018-05-18T05:23:02.282Z,6.10
2018-05-18T05:25:32.646Z,5.17
2018-05-18T05:28:03.050Z,5.27
2018-05-18T05:30:34.986Z,5.63
2018-05-18T05:33:05.250Z,5.83
2018-05-18T05:35:35.638Z,6.30
2018-05-18T05:38:06.004Z,6.07
2018-05-18T05:40:36.369Z,5.63
2018-05-18T05:43:06.757Z,5.60
2018-05-18T05:45:37.074Z,5.33
2018-05-18T05:48:08.198Z,5.63
2018-05-18T05:50:38.581Z,5.57
2018-05-18T05:53:08.936Z,5.80
2018-05-18T05:55:39.313Z,6.00
2018-05-18T05:58:09.702Z,5.90
2018-05-18T06:00:41.067Z,6.37
2018-05-18T06:03:12.236Z,6.70
2018-05-18T06:05:42.621Z,6.97
2018-05-18T06:08:12.986Z,6.07
2018-05-18T06:10:43.328Z,6.07
2018-05-18T06:13:15.774Z,5.70
2018-05-18T06:15:46.878Z,6.47
2018-05-18T06:18:17.247Z,5.77
2018-05-18T06:20:47.672Z,6.40
2018-05-18T06:23:18.052Z,6.90
2018-05-18T06:25:50.459Z,5.57
2018-05-18T06:28:21.639Z,6.20
2018-05-18T06:30:52.002Z,6.33
2018-05-18T06:33:22.377Z,6.10
2018-05-18T06:35:52.772Z,6.57
2018-05-18T06:38:23.101Z,7.10
2018-05-18T06:40:54.242Z,7.23
2018-05-18T06:43:24.827Z,6.40
2018-05-18T06:45:55.195Z,6.57
2018-05-18T06:48:26.526Z,6.80
2018-05-18T06:50:56.923Z,6.13
2018-05-18T06:53:48.660Z,7.20
2018-05-18T06:56:22.797Z,7.07
2018-05-18T06:58:53.256Z,6.40
2018-05-18T07:01:23.550Z,6.90
2018-05-18T07:03:53.950Z,6.70
2018-05-18T07:06:24.315Z,6.93
2018-05-18T07:08:56.807Z,6.77
2018-05-18T07:11:31.915Z,7.17
2018-05-18T07:14:02.283Z,6.00
2018-05-18T07:16:32.683Z,6.43
2018-05-18T07:19:04.032Z,7.20
2018-05-18T07:21:34.416Z,6.60
2018-05-18T07:24:07.876Z,7.00
2018-05-18T07:26:38.273Z,6.60
2018-05-18T07:29:08.635Z,6.77
2018-05-18T07:31:39.228Z,6.90
2018-05-18T07:34:09.624Z,7.17
2018-05-18T07:36:39.993Z,6.40
2018-05-18T07:39:11.151Z,6.87
2018-05-18T07:41:42.326Z,7.20
2018-05-18T07:44:17.815Z,7.30
2018-05-18T07:46:48.200Z,6.57
2018-05-18T07:49:24.739Z,6.87
2018-05-18T07:51:55.109Z,7.00
2018-05-18T07:54:32.761Z,6.83
2018-05-18T07:57:04.103Z,6.43
2018-05-18T07:59:35.316Z,7.43
2018-05-18T08:02:05.583Z,6.67
2018-05-18T08:04:35.950Z,6.63
2018-05-18T08:07:12.496Z,7.40
2018-05-18T08:09:42.875Z,6.80
2018-05-18T08:12:13.234Z,7.43
2018-05-18T08:14:43.837Z,8.17
2018-05-18T08:17:15.230Z,7.23
2018-05-18T08:19:45.615Z,6.43
2018-05-18T08:22:16.011Z,7.10
2018-05-18T08:24:50.489Z,6.50
2018-05-18T08:27:24.475Z,7.00
2018-05-18T08:29:54.778Z,7.40
2018-05-18T08:32:25.150Z,6.87
2018-05-18T08:34:56.326Z,7.40
2018-05-18T08:40:18.128Z,6.93
2018-05-18T08:42:48.505Z,6.70
2018-05-18T08:45:26.215Z,7.97
2018-05-18T08:47:59.643Z,6.93
2018-05-18T08:50:30.215Z,7.40
2018-05-18T08:53:00.835Z,7.73
2018-05-18T08:55:31.459Z,6.93
2018-05-18T08:58:02.605Z,7.00
2018-05-18T09:00:33.079Z,6.70
2018-05-18T09:03:03.370Z,6.83
2018-05-18T09:05:33.741Z,7.40
2018-05-18T09:08:04.127Z,7.20
2018-05-18T09:10:35.527Z,7.20
2018-05-18T09:13:05.902Z,7.13
2018-05-18T09:15:36.297Z,7.20
2018-05-18T09:18:06.607Z,6.70
2018-05-18T09:20:36.976Z,7.30
2018-05-18T09:23:07.371Z,7.00
2018-05-18T09:25:38.516Z,6.47
2018-05-18T09:28:08.896Z,6.47
2018-05-18T09:30:39.517Z,7.03
2018-05-18T09:33:09.885Z,7.63
2018-05-18T09:35:40.277Z,6.67
2018-05-18T09:38:10.673Z,6.90
2018-05-18T09:40:41.825Z,7.23
2018-05-18T09:43:12.201Z,6.30
2018-05-18T09:45:42.590Z,6.40
2018-05-18T09:48:12.901Z,6.67
2018-05-18T09:50:43.274Z,7.40
2018-05-18T09:53:13.760Z,6.23
2018-05-18T09:55:43.987Z,6.63
2018-05-18T09:58:14.369Z,6.20
2018-05-18T10:00:44.803Z,6.27
2018-05-18T10:03:15.156Z,6.37
2018-05-18T10:05:45.535Z,7.63
2018-05-18T10:08:15.938Z,6.23
2018-05-18T10:10:48.342Z,6.73
2018-05-18T10:13:18.713Z,6.30
2018-05-18T10:15:49.107Z,5.60
2018-05-18T10:18:22.743Z,6.27
2018-05-18T10:20:53.109Z,5.23
2018-05-18T10:23:23.510Z,5.97
2018-05-18T10:25:53.890Z,5.83
2018-05-18T10:28:30.642Z,5.80
2018-05-18T10:31:01.030Z,5.67
2018-05-18T10:33:31.407Z,5.40
2018-05-18T10:36:01.847Z,5.80
2018-05-18T10:38:35.246Z,5.70
2018-05-18T10:41:06.419Z,6.07
2018-05-18T10:43:36.803Z,5.70
2018-05-18T10:46:07.119Z,5.53
2018-05-18T10:48:37.506Z,5.03
2018-05-18T10:51:07.826Z,5.10
2018-05-18T10:53:38.212Z,5.00
2018-05-18T10:56:08.610Z,4.70
2018-05-18T10:58:40.071Z,4.67
2018-05-18T11:01:11.139Z,4.53
2018-05-18T11:03:41.725Z,4.87
2018-05-18T11:06:12.097Z,4.77
2018-05-18T11:08:44.257Z,4.67
2018-05-18T11:11:14.600Z,5.63
2018-05-18T11:13:44.983Z,4.93
2018-05-18T11:16:15.364Z,4.70
2018-05-18T11:18:45.783Z,4.37
2018-05-18T11:21:16.902Z,5.27
2018-05-18T11:23:47.266Z,4.53
2018-05-18T11:26:17.698Z,5.27
2018-05-18T11:28:48.040Z,4.43
2018-05-18T11:31:22.506Z,4.00
2018-05-18T11:33:52.919Z,4.50
2018-05-18T11:36:23.295Z,4.07
2018-05-18T11:38:53.665Z,3.97
2018-05-18T11:41:24.054Z,3.90
2018-05-18T11:43:54.424Z,4.03
2018-05-18T11:46:24.802Z,4.10
2018-05-18T11:48:55.192Z,4.17
2018-05-18T11:51:25.562Z,4.07
2018-05-18T11:53:56.954Z,5.00
2018-05-18T11:56:27.350Z,3.97
2018-05-18T11:59:03.844Z,4.30
2018-05-18T12:01:34.245Z,4.17
2018-05-18T12:04:05.634Z,4.43
2018-05-18T12:06:36.193Z,3.80
2018-05-18T12:09:09.016Z,3.50
2018-05-18T12:11:45.517Z,3.80
2018-05-18T12:14:15.912Z,3.77
2018-05-18T12:16:53.439Z,4.20
2018-05-18T12:19:23.837Z,3.80
2018-05-18T12:21:55.225Z,3.40
2018-05-18T12:24:25.547Z,4.03
2018-05-18T12:26:56.789Z,3.27
2018-05-18T12:29:27.169Z,3.20
2018-05-18T12:31:57.536Z,3.70
2018-05-18T12:34:27.928Z,3.27
2018-05-18T12:36:58.293Z,3.37
2018-05-18T12:39:28.663Z,3.40
2018-05-18T12:41:59.046Z,3.30
2018-05-18T12:44:29.413Z,3.57
2018-05-18T12:46:59.793Z,3.23
2018-05-18T12:49:30.183Z,3.40
2018-05-18T12:52:00.551Z,3.57
2018-05-18T12:57:19.069Z,3.57
2018-05-18T12:59:49.437Z,3.20
2018-05-18T13:02:19.800Z,3.77
2018-05-18T13:04:50.963Z,3.37
2018-05-18T13:07:21.341Z,3.57
2018-05-18T13:09:51.710Z,3.47
2018-05-18T13:12:22.107Z,3.83
2018-05-18T13:14:53.253Z,3.60
2018-05-18T13:17:24.645Z,3.80
2018-05-18T13:19:57.080Z,3.30
2018-05-18T13:22:27.445Z,3.00
2018-05-18T13:24:58.032Z,3.60
2018-05-18T13:27:28.400Z,3.17
2018-05-18T13:29:58.772Z,3.13
2018-05-18T13:32:29.137Z,3.30
2018-05-18T13:34:59.521Z,3.83
2018-05-18T13:37:29.899Z,3.70
2018-05-18T13:40:00.265Z,3.90
2018-05-18T13:42:30.607Z,3.67
2018-05-18T13:45:00.971Z,3.60
2018-05-18T13:47:31.282Z,3.47
2018-05-18T13:50:02.438Z,3.87
2018-05-18T13:52:32.819Z,3.70
2018-05-18T13:55:03.196Z,3.80
2018-05-18T13:57:33.587Z,3.53
2018-05-18T14:00:03.955Z,3.90
2018-05-18T14:02:34.311Z,3.03
2018-05-18T14:05:04.698Z,3.73
2018-05-18T14:07:35.068Z,3.77
2018-05-18T14:10:05.451Z,3.27
2018-05-18T14:12:35.836Z,3.30
2018-05-18T14:15:06.202Z,3.73
2018-05-18T14:17:36.515Z,3.77
2018-05-18T14:20:07.625Z,3.70
2018-05-18T14:22:37.989Z,3.43
2018-05-18T14:25:08.352Z,3.27
2018-05-18T14:27:38.746Z,3.50
2018-05-18T14:30:09.131Z,3.10
2018-05-18T14:32:39.500Z,3.30
2018-05-18T14:35:09.833Z,3.37
2018-05-18T14:37:40.204Z,3.47
2018-05-18T14:40:10.583Z,3.40
2018-05-18T14:42:40.974Z,3.37
2018-05-18T14:45:11.334Z,3.43
2018-05-18T14:47:41.699Z,3.07
2018-05-18T14:50:12.077Z,3.37
2018-05-18T14:52:42.462Z,3.40
2018-05-18T14:55:12.822Z,2.93
2018-05-18T14:57:46.024Z,3.40
2018-05-18T15:00:16.387Z,3.60
2018-05-18T15:02:46.746Z,3.30
2018-05-18T15:05:19.173Z,3.50
2018-05-18T15:07:56.776Z,4.13
2018-05-18T15:10:27.107Z,3.47
2018-05-18T15:12:57.471Z,3.43
2018-05-18T15:15:27.847Z,3.63
2018-05-18T15:17:59.259Z,3.47
2018-05-18T15:20:30.401Z,3.40
2018-05-18T15:23:00.778Z,3.60
2018-05-18T15:25:51.556Z,3.57
2018-05-18T15:28:21.940Z,4.03
2018-05-18T15:30:52.304Z,4.10
2018-05-18T15:33:22.695Z,4.17
2018-05-18T15:35:53.063Z,3.63
2018-05-18T15:38:23.438Z,3.90
2018-05-18T15:40:53.829Z,3.20
2018-05-18T15:43:24.146Z,2.97
2018-05-18T15:45:55.550Z,3.63
2018-05-18T15:48:25.928Z,3.60
2018-05-18T15:50:58.365Z,4.27
2018-05-18T15:53:29.497Z,3.67
2018-05-18T15:56:02.481Z,3.53
2018-05-18T15:58:32.860Z,4.90
2018-05-18T16:01:03.223Z,4.57
2018-05-18T16:03:33.627Z,3.77
2018-05-18T16:06:03.988Z,4.53
2018-05-18T16:08:34.363Z,3.50
2018-05-18T16:11:06.801Z,4.17
2018-05-18T16:13:37.939Z,3.70
2018-05-18T16:16:08.294Z,3.60
2018-05-18T16:18:38.678Z,4.20
2018-05-18T16:21:09.048Z,3.33
2018-05-18T16:23:39.415Z,3.53
2018-05-18T16:26:11.852Z,3.17
2018-05-18T16:28:42.222Z,3.93
2018-05-18T16:31:12.533Z,3.67
2018-05-18T16:33:43.945Z,3.70
2018-05-18T16:36:14.507Z,3.47
2018-05-18T16:38:44.864Z,3.53
2018-05-18T16:41:15.258Z,3.90
2018-05-18T16:44:07.036Z,3.53
2018-05-18T16:46:37.422Z,3.47
2018-05-18T16:49:08.001Z,3.60
2018-05-18T16:51:38.631Z,3.70
2018-05-18T16:54:10.467Z,3.43
2018-05-18T16:56:40.834Z,3.90
2018-05-18T16:59:11.212Z,3.40
2018-05-18T17:01:41.601Z,3.20
2018-05-18T17:04:13.713Z,3.27
2018-05-18T17:06:44.079Z,3.10
2018-05-18T17:09:14.460Z,3.43
2018-05-18T17:14:32.544Z,3.37
2018-05-18T17:17:02.913Z,3.63
2018-05-18T17:19:33.220Z,3.53
2018-05-18T17:22:03.606Z,3.77
2018-05-18T17:24:34.258Z,3.27
2018-05-18T17:27:05.386Z,3.67
2018-05-18T17:29:36.541Z,3.80
2018-05-18T17:32:07.665Z,3.37
2018-05-18T17:34:41.092Z,4.40
2018-05-18T17:37:12.253Z,4.30
2018-05-18T17:39:42.627Z,3.60
2018-05-18T17:42:13.040Z,3.00
2018-05-18T17:44:47.497Z,3.17
2018-05-18T17:47:18.623Z,3.10
2018-05-18T17:49:48.991Z,3.40
2018-05-18T17:52:19.385Z,3.53
2018-05-18T17:54:49.756Z,3.10
2018-05-18T17:57:20.115Z,3.78
2018-05-18T17:59:50.449Z,3.40
2018-05-18T18:02:20.808Z,2.90
2018-05-18T18:04:51.929Z,3.77
2018-05-18T18:07:22.260Z,3.20
2018-05-18T18:09:53.666Z,3.60
2018-05-18T18:12:29.161Z,3.33
2018-05-18T18:14:59.521Z,2.93
2018-05-18T18:17:29.829Z,3.00
2018-05-18T18:20:00.988Z,2.83
2018-05-18T18:22:31.378Z,2.93
2018-05-18T18:25:01.715Z,2.87
2018-05-18T18:27:32.875Z,2.87
2018-05-18T18:30:03.239Z,3.13
2018-05-18T18:32:34.622Z,3.10
2018-05-18T18:35:05.793Z,2.83
2018-05-18T18:37:36.150Z,3.20
2018-05-18T18:41:03.037Z,3.33
2018-05-18T18:43:33.402Z,2.77
2018-05-18T18:46:03.762Z,3.20
2018-05-18T18:48:34.143Z,2.83
2018-05-18T18:51:04.501Z,3.03
2018-05-18T18:53:34.864Z,4.00
2018-05-18T18:56:27.499Z,2.97
2018-05-18T18:58:57.792Z,3.10
2018-05-18T19:01:28.933Z,3.00
2018-05-18T19:04:00.089Z,2.63
2018-05-18T19:06:30.396Z,2.93
2018-05-18T19:09:01.525Z,3.40
2018-05-18T19:11:32.566Z,3.47
2018-05-18T19:14:02.882Z,3.07
2018-05-18T19:16:33.245Z,2.87
2018-05-18T19:19:03.624Z,3.10
2018-05-18T19:21:34.021Z,3.30
2018-05-18T19:24:04.338Z,3.50
2018-05-18T19:26:34.738Z,3.43
2018-05-18T19:29:05.869Z,3.23
2018-05-18T19:31:36.425Z,3.00
2018-05-18T19:34:07.048Z,3.33
2018-05-18T19:36:38.487Z,3.00
2018-05-18T19:39:09.528Z,3.23
2018-05-18T19:41:39.938Z,3.53
2018-05-18T19:44:10.316Z,3.57
2018-05-18T19:46:40.685Z,3.60
2018-05-18T19:49:11.022Z,3.80
2018-05-18T19:51:41.386Z,3.10
2018-05-18T19:54:11.752Z,3.30
2018-05-18T19:56:42.154Z,3.33
2018-05-18T19:59:12.504Z,3.80
2018-05-18T20:01:42.872Z,3.80
2018-05-18T20:04:14.026Z,3.23
2018-05-18T20:06:45.145Z,3.60
2018-05-18T20:09:15.504Z,3.77
2018-05-18T20:11:46.739Z,3.53
2018-05-18T20:14:18.504Z,3.50
2018-05-18T20:16:49.639Z,3.37
2018-05-18T20:19:20.796Z,3.60
2018-05-18T20:21:51.167Z,3.63
2018-05-18T20:24:40.652Z,3.20
2018-05-18T20:27:11.323Z,3.53
2018-05-18T20:29:42.453Z,3.53
2018-05-18T20:32:12.843Z,3.70
2018-05-18T20:34:50.461Z,3.70
2018-05-18T20:37:20.894Z,3.67
2018-05-18T20:39:51.550Z,3.20
2018-05-18T20:42:21.874Z,3.50
2018-05-18T20:44:53.024Z,3.37
2018-05-18T20:47:23.387Z,3.40
2018-05-18T20:49:53.749Z,3.90
2018-05-18T20:52:24.134Z,4.13
2018-05-18T20:54:54.503Z,3.63
2018-05-18T20:57:24.890Z,4.03
2018-05-18T20:59:55.253Z,3.77
2018-05-18T21:02:25.625Z,3.77
2018-05-18T21:04:55.989Z,4.27
2018-05-18T21:07:26.389Z,3.77
2018-05-18T21:09:56.751Z,4.30
2018-05-18T21:12:27.117Z,4.00
2018-05-18T21:14:57.506Z,4.27
2018-05-18T21:17:27.870Z,4.03
2018-05-18T21:19:58.251Z,4.03
2018-05-18T21:22:28.657Z,4.63
2018-05-18T21:27:43.768Z,3.50
2018-05-18T21:30:14.141Z,4.37
2018-05-18T21:32:44.460Z,4.20
2018-05-18T21:35:14.867Z,3.80
2018-05-18T21:37:45.996Z,4.10
2018-05-18T21:40:16.353Z,4.17
2018-05-18T21:42:46.738Z,4.27
2018-05-18T21:45:17.303Z,3.70
2018-05-18T21:47:48.434Z,4.50
2018-05-18T21:50:19.576Z,3.93
2018-05-18T21:52:49.949Z,3.63
2018-05-18T21:55:22.372Z,3.90
2018-05-18T21:57:53.514Z,3.97
2018-05-18T22:00:23.872Z,4.47
2018-05-18T22:02:54.250Z,4.30
2018-05-18T22:05:24.653Z,4.33
2018-05-18T22:08:14.123Z,4.80
2018-05-18T22:10:46.552Z,3.70
2018-05-18T22:13:17.689Z,4.50
2018-05-18T22:15:48.048Z,4.10
2018-05-18T22:18:18.438Z,3.97
2018-05-18T22:20:48.799Z,3.57
2018-05-18T22:23:19.158Z,3.97
2018-05-18T22:26:08.927Z,3.77
2018-05-18T22:28:39.236Z,4.23
2018-05-18T22:31:09.599Z,3.80
2018-05-18T22:33:39.976Z,4.17
2018-05-18T22:36:10.346Z,4.30
2018-05-18T22:38:40.717Z,4.13
2018-05-18T22:41:11.871Z,4.17
2018-05-18T22:43:42.997Z,4.20
2018-05-18T22:46:13.358Z,4.03
2018-05-18T22:48:43.750Z,4.40
2018-05-18T22:51:14.917Z,4.20
2018-05-18T22:53:45.276Z,4.43
2018-05-18T22:56:15.672Z,4.17
2018-05-18T22:58:48.086Z,4.20
2018-05-18T23:01:19.485Z,4.30
2018-05-18T23:03:50.637Z,3.97
2018-05-18T23:06:21.000Z,3.93
2018-05-18T23:08:58.539Z,4.07
2018-05-18T23:11:29.659Z,4.33
2018-05-18T23:14:00.022Z,4.47
2018-05-18T23:16:31.177Z,3.63
2018-05-18T23:19:01.541Z,4.10
2018-05-18T23:21:31.914Z,4.07
2018-05-18T23:24:03.074Z,4.43
2018-05-18T23:26:33.432Z,4.27
2018-05-18T23:29:25.253Z,4.10
2018-05-18T23:31:59.723Z,4.90
2018-05-18T23:34:30.886Z,4.67
2018-05-18T23:37:01.246Z,4.03
2018-05-18T23:39:35.705Z,4.67
2018-05-18T23:42:06.106Z,4.17
2018-05-18T23:44:55.851Z,4.43
2018-05-18T23:47:26.235Z,4.40
2018-05-18T23:49:56.549Z,4.40
2018-05-18T23:52:26.864Z,4.30
2018-05-18T23:54:57.258Z,4.93
2018-05-18T23:57:27.627Z,4.40
2018-05-18T23:59:57.990Z,3.93
